sensor_id;sensor_type;location;lat;lon;timestamp;P1;durP1;ratioP1;P2;durP2;ratioP2
51248;SDS011;39642;47.556;18.728;2022-09-09T00:02:24;5.18;;;1.70;;
51248;SDS011;39642;47.556;18.728;2022-09-09T00:10:20;5.00;;;1.73;;
51248;SDS011;39642;47.556;18.728;2022-09-09T00:15:46;4.93;;;1.70;;
51248;SDS011;39642;47.556;18.728;2022-09-09T00:18:31;5.47;;;1.65;;
51248;SDS011;39642;47.556;18.728;2022-09-09T00:21:16;5.03;;;1.73;;
51248;SDS011;39642;47.556;18.728;2022-09-09T00:23:50;4.70;;;1.67;;
51248;SDS011;39642;47.556;18.728;2022-09-09T00:31:34;3.80;;;1.50;;
51248;SDS011;39642;47.556;18.728;2022-09-09T00:34:24;5.10;;;1.60;;
51248;SDS011;39642;47.556;18.728;2022-09-09T00:36:50;4.37;;;1.65;;
51248;SDS011;39642;47.556;18.728;2022-09-09T00:39:39;6.25;;;1.77;;
51248;SDS011;39642;47.556;18.728;2022-09-09T00:44:42;6.60;;;1.62;;
51248;SDS011;39642;47.556;18.728;2022-09-09T00:47:35;6.57;;;1.80;;
51248;SDS011;39642;47.556;18.728;2022-09-09T00:50:10;4.30;;;1.52;;
51248;SDS011;39642;47.556;18.728;2022-09-09T00:58:24;5.07;;;1.50;;
51248;SDS011;39642;47.556;18.728;2022-09-09T01:00:51;4.32;;;1.50;;
51248;SDS011;39642;47.556;18.728;2022-09-09T01:06:19;3.67;;;1.42;;
51248;SDS011;39642;47.556;18.728;2022-09-09T01:09:04;6.07;;;1.75;;
51248;SDS011;39642;47.556;18.728;2022-09-09T01:11:52;4.25;;;1.50;;
51248;SDS011;39642;47.556;18.728;2022-09-09T01:14:29;6.40;;;1.70;;
51248;SDS011;39642;47.556;18.728;2022-09-09T01:17:08;5.75;;;1.60;;
51248;SDS011;39642;47.556;18.728;2022-09-09T01:27:34;4.03;;;1.42;;
51248;SDS011;39642;47.556;18.728;2022-09-09T01:30:07;3.80;;;1.50;;
51248;SDS011;39642;47.556;18.728;2022-09-09T01:32:43;4.50;;;1.60;;
51248;SDS011;39642;47.556;18.728;2022-09-09T01:35:13;4.28;;;1.52;;
51248;SDS011;39642;47.556;18.728;2022-09-09T01:37:49;5.45;;;1.48;;
51248;SDS011;39642;47.556;18.728;2022-09-09T01:40:15;3.60;;;1.60;;
51248;SDS011;39642;47.556;18.728;2022-09-09T01:42:41;4.03;;;1.60;;
51248;SDS011;39642;47.556;18.728;2022-09-09T01:45:07;4.72;;;1.60;;
51248;SDS011;39642;47.556;18.728;2022-09-09T01:47:34;4.68;;;1.60;;
51248;SDS011;39642;47.556;18.728;2022-09-09T01:50:00;5.65;;;1.60;;
51248;SDS011;39642;47.556;18.728;2022-09-09T01:52:28;4.22;;;1.50;;
51248;SDS011;39642;47.556;18.728;2022-09-09T01:54:55;5.20;;;1.60;;
51248;SDS011;39642;47.556;18.728;2022-09-09T01:57:23;4.28;;;1.55;;
51248;SDS011;39642;47.556;18.728;2022-09-09T02:00:04;4.10;;;1.60;;
51248;SDS011;39642;47.556;18.728;2022-09-09T02:07:47;5.55;;;1.80;;
51248;SDS011;39642;47.556;18.728;2022-09-09T02:10:26;4.68;;;1.58;;
51248;SDS011;39642;47.556;18.728;2022-09-09T02:16:25;3.97;;;1.42;;
51248;SDS011;39642;47.556;18.728;2022-09-09T02:21:13;3.90;;;1.60;;
51248;SDS011;39642;47.556;18.728;2022-09-09T02:23:40;4.78;;;1.50;;
51248;SDS011;39642;47.556;18.728;2022-09-09T02:26:09;4.15;;;1.50;;
51248;SDS011;39642;47.556;18.728;2022-09-09T02:28:38;3.70;;;1.50;;
51248;SDS011;39642;47.556;18.728;2022-09-09T02:31:06;2.95;;;1.35;;
51248;SDS011;39642;47.556;18.728;2022-09-09T02:33:40;4.53;;;1.40;;
51248;SDS011;39642;47.556;18.728;2022-09-09T02:36:10;4.57;;;1.58;;
51248;SDS011;39642;47.556;18.728;2022-09-09T02:38:39;4.78;;;1.50;;
51248;SDS011;39642;47.556;18.728;2022-09-09T02:43:36;3.42;;;1.40;;
51248;SDS011;39642;47.556;18.728;2022-09-09T02:48:42;5.35;;;1.58;;
51248;SDS011;39642;47.556;18.728;2022-09-09T02:54:10;4.90;;;1.40;;
51248;SDS011;39642;47.556;18.728;2022-09-09T02:56:43;3.35;;;1.40;;
51248;SDS011;39642;47.556;18.728;2022-09-09T02:59:16;4.47;;;1.50;;
51248;SDS011;39642;47.556;18.728;2022-09-09T03:01:42;6.05;;;1.58;;
51248;SDS011;39642;47.556;18.728;2022-09-09T03:04:09;3.17;;;1.35;;
51248;SDS011;39642;47.556;18.728;2022-09-09T03:06:35;3.87;;;1.50;;
51248;SDS011;39642;47.556;18.728;2022-09-09T03:09:01;3.42;;;1.40;;
51248;SDS011;39642;47.556;18.728;2022-09-09T03:11:28;4.15;;;1.40;;
51248;SDS011;39642;47.556;18.728;2022-09-09T03:13:54;3.60;;;1.40;;
51248;SDS011;39642;47.556;18.728;2022-09-09T03:16:22;3.55;;;1.40;;
51248;SDS011;39642;47.556;18.728;2022-09-09T03:18:48;3.97;;;1.50;;
51248;SDS011;39642;47.556;18.728;2022-09-09T03:21:14;3.40;;;1.40;;
51248;SDS011;39642;47.556;18.728;2022-09-09T03:23:40;3.85;;;1.40;;
51248;SDS011;39642;47.556;18.728;2022-09-09T03:26:06;5.35;;;1.50;;
51248;SDS011;39642;47.556;18.728;2022-09-09T03:28:33;4.93;;;1.60;;
51248;SDS011;39642;47.556;18.728;2022-09-09T03:31:02;5.22;;;1.58;;
51248;SDS011;39642;47.556;18.728;2022-09-09T03:33:30;2.55;;;1.35;;
51248;SDS011;39642;47.556;18.728;2022-09-09T03:35:57;3.87;;;1.42;;
51248;SDS011;39642;47.556;18.728;2022-09-09T03:38:23;4.43;;;1.50;;
51248;SDS011;39642;47.556;18.728;2022-09-09T03:40:53;3.95;;;1.60;;
51248;SDS011;39642;47.556;18.728;2022-09-09T03:43:23;5.15;;;1.60;;
51248;SDS011;39642;47.556;18.728;2022-09-09T03:45:50;4.45;;;1.40;;
51248;SDS011;39642;47.556;18.728;2022-09-09T03:48:17;5.15;;;1.50;;
51248;SDS011;39642;47.556;18.728;2022-09-09T03:50:46;4.32;;;1.50;;
51248;SDS011;39642;47.556;18.728;2022-09-09T03:53:13;4.57;;;1.50;;
51248;SDS011;39642;47.556;18.728;2022-09-09T03:55:44;4.28;;;1.60;;
51248;SDS011;39642;47.556;18.728;2022-09-09T03:58:11;3.40;;;1.40;;
51248;SDS011;39642;47.556;18.728;2022-09-09T04:00:39;4.03;;;1.60;;
51248;SDS011;39642;47.556;18.728;2022-09-09T04:03:09;4.00;;;1.50;;
51248;SDS011;39642;47.556;18.728;2022-09-09T04:05:35;3.75;;;1.42;;
51248;SDS011;39642;47.556;18.728;2022-09-09T04:08:08;5.00;;;1.50;;
51248;SDS011;39642;47.556;18.728;2022-09-09T04:10:34;5.45;;;1.77;;
51248;SDS011;39642;47.556;18.728;2022-09-09T04:13:03;5.35;;;1.67;;
51248;SDS011;39642;47.556;18.728;2022-09-09T04:15:30;5.10;;;1.40;;
51248;SDS011;39642;47.556;18.728;2022-09-09T04:17:56;4.28;;;1.50;;
51248;SDS011;39642;47.556;18.728;2022-09-09T04:20:22;6.10;;;1.83;;
51248;SDS011;39642;47.556;18.728;2022-09-09T04:22:49;4.50;;;1.58;;
51248;SDS011;39642;47.556;18.728;2022-09-09T04:25:14;4.60;;;1.70;;
51248;SDS011;39642;47.556;18.728;2022-09-09T04:27:40;4.75;;;1.50;;
51248;SDS011;39642;47.556;18.728;2022-09-09T04:30:08;5.10;;;1.58;;
51248;SDS011;39642;47.556;18.728;2022-09-09T04:32:34;5.87;;;1.87;;
51248;SDS011;39642;47.556;18.728;2022-09-09T04:35:01;2.92;;;1.42;;
51248;SDS011;39642;47.556;18.728;2022-09-09T04:37:27;4.93;;;1.80;;
51248;SDS011;39642;47.556;18.728;2022-09-09T04:39:53;6.40;;;1.98;;
51248;SDS011;39642;47.556;18.728;2022-09-09T04:42:19;6.78;;;2.10;;
51248;SDS011;39642;47.556;18.728;2022-09-09T04:44:45;10.95;;;2.95;;
51248;SDS011;39642;47.556;18.728;2022-09-09T04:47:11;10.73;;;4.55;;
51248;SDS011;39642;47.556;18.728;2022-09-09T04:49:37;17.35;;;7.75;;
51248;SDS011;39642;47.556;18.728;2022-09-09T04:52:04;15.40;;;7.40;;
51248;SDS011;39642;47.556;18.728;2022-09-09T04:54:30;15.10;;;6.03;;
51248;SDS011;39642;47.556;18.728;2022-09-09T04:56:56;12.20;;;5.40;;
51248;SDS011;39642;47.556;18.728;2022-09-09T04:59:22;11.93;;;4.55;;
51248;SDS011;39642;47.556;18.728;2022-09-09T05:01:48;12.98;;;3.95;;
51248;SDS011;39642;47.556;18.728;2022-09-09T05:04:15;14.18;;;3.55;;
51248;SDS011;39642;47.556;18.728;2022-09-09T05:06:42;12.70;;;2.72;;
51248;SDS011;39642;47.556;18.728;2022-09-09T05:09:08;10.07;;;2.60;;
51248;SDS011;39642;47.556;18.728;2022-09-09T05:11:34;11.15;;;2.12;;
51248;SDS011;39642;47.556;18.728;2022-09-09T05:14:03;9.80;;;2.25;;
51248;SDS011;39642;47.556;18.728;2022-09-09T05:16:29;8.23;;;2.30;;
51248;SDS011;39642;47.556;18.728;2022-09-09T05:18:56;10.45;;;2.37;;
51248;SDS011;39642;47.556;18.728;2022-09-09T05:21:23;10.55;;;2.20;;
51248;SDS011;39642;47.556;18.728;2022-09-09T05:23:52;7.30;;;1.90;;
51248;SDS011;39642;47.556;18.728;2022-09-09T05:26:21;6.40;;;2.00;;
51248;SDS011;39642;47.556;18.728;2022-09-09T05:28:48;8.05;;;2.17;;
51248;SDS011;39642;47.556;18.728;2022-09-09T05:31:14;15.55;;;2.33;;
51248;SDS011;39642;47.556;18.728;2022-09-09T05:33:42;10.43;;;2.22;;
51248;SDS011;39642;47.556;18.728;2022-09-09T05:36:12;8.48;;;1.85;;
51248;SDS011;39642;47.556;18.728;2022-09-09T05:38:45;19.08;;;2.35;;
51248;SDS011;39642;47.556;18.728;2022-09-09T05:41:12;9.23;;;2.17;;
51248;SDS011;39642;47.556;18.728;2022-09-09T05:43:41;9.15;;;1.92;;
51248;SDS011;39642;47.556;18.728;2022-09-09T05:46:09;8.40;;;1.80;;
51248;SDS011;39642;47.556;18.728;2022-09-09T05:48:38;7.78;;;2.10;;
51248;SDS011;39642;47.556;18.728;2022-09-09T05:51:08;7.85;;;1.92;;
51248;SDS011;39642;47.556;18.728;2022-09-09T05:53:38;9.35;;;2.15;;
51248;SDS011;39642;47.556;18.728;2022-09-09T05:56:05;6.50;;;1.90;;
51248;SDS011;39642;47.556;18.728;2022-09-09T05:58:36;9.27;;;1.90;;
51248;SDS011;39642;47.556;18.728;2022-09-09T06:01:03;6.12;;;1.87;;
51248;SDS011;39642;47.556;18.728;2022-09-09T06:03:33;10.73;;;1.90;;
51248;SDS011;39642;47.556;18.728;2022-09-09T06:06:01;8.27;;;2.00;;
51248;SDS011;39642;47.556;18.728;2022-09-09T06:08:31;9.77;;;1.80;;
51248;SDS011;39642;47.556;18.728;2022-09-09T06:11:05;7.35;;;1.67;;
51248;SDS011;39642;47.556;18.728;2022-09-09T06:13:43;8.57;;;2.03;;
51248;SDS011;39642;47.556;18.728;2022-09-09T06:16:09;10.77;;;1.73;;
51248;SDS011;39642;47.556;18.728;2022-09-09T06:18:37;11.63;;;1.90;;
51248;SDS011;39642;47.556;18.728;2022-09-09T06:21:05;7.78;;;1.75;;
51248;SDS011;39642;47.556;18.728;2022-09-09T06:23:32;4.70;;;1.65;;
51248;SDS011;39642;47.556;18.728;2022-09-09T06:26:04;6.25;;;1.73;;
51248;SDS011;39642;47.556;18.728;2022-09-09T06:28:33;7.60;;;1.90;;
51248;SDS011;39642;47.556;18.728;2022-09-09T06:31:03;13.70;;;2.90;;
51248;SDS011;39642;47.556;18.728;2022-09-09T06:33:31;8.18;;;1.92;;
51248;SDS011;39642;47.556;18.728;2022-09-09T06:36:00;12.93;;;3.00;;
51248;SDS011;39642;47.556;18.728;2022-09-09T06:38:29;11.35;;;2.60;;
51248;SDS011;39642;47.556;18.728;2022-09-09T06:40:55;18.92;;;3.60;;
51248;SDS011;39642;47.556;18.728;2022-09-09T06:43:25;13.48;;;2.60;;
51248;SDS011;39642;47.556;18.728;2022-09-09T06:45:58;19.52;;;2.78;;
51248;SDS011;39642;47.556;18.728;2022-09-09T06:48:26;29.87;;;3.55;;
51248;SDS011;39642;47.556;18.728;2022-09-09T06:51:00;22.52;;;3.87;;
51248;SDS011;39642;47.556;18.728;2022-09-09T06:53:30;37.50;;;3.53;;
51248;SDS011;39642;47.556;18.728;2022-09-09T06:56:44;24.25;;;2.95;;
51248;SDS011;39642;47.556;18.728;2022-09-09T06:58:49;28.60;;;3.65;;
51248;SDS011;39642;47.556;18.728;2022-09-09T07:01:21;19.42;;;2.30;;
51248;SDS011;39642;47.556;18.728;2022-09-09T07:03:50;16.23;;;2.60;;
51248;SDS011;39642;47.556;18.728;2022-09-09T07:06:18;12.98;;;2.12;;
51248;SDS011;39642;47.556;18.728;2022-09-09T07:08:53;9.75;;;2.05;;
51248;SDS011;39642;47.556;18.728;2022-09-09T07:11:21;13.52;;;2.10;;
51248;SDS011;39642;47.556;18.728;2022-09-09T07:13:48;9.82;;;1.90;;
51248;SDS011;39642;47.556;18.728;2022-09-09T07:16:15;11.48;;;1.75;;
51248;SDS011;39642;47.556;18.728;2022-09-09T07:18:42;12.15;;;2.20;;
51248;SDS011;39642;47.556;18.728;2022-09-09T07:21:09;11.60;;;2.10;;
51248;SDS011;39642;47.556;18.728;2022-09-09T07:23:37;14.85;;;1.90;;
51248;SDS011;39642;47.556;18.728;2022-09-09T07:26:11;14.38;;;2.65;;
51248;SDS011;39642;47.556;18.728;2022-09-09T07:28:38;11.10;;;2.17;;
51248;SDS011;39642;47.556;18.728;2022-09-09T07:31:06;11.40;;;2.50;;
51248;SDS011;39642;47.556;18.728;2022-09-09T07:33:33;8.65;;;2.10;;
51248;SDS011;39642;47.556;18.728;2022-09-09T07:36:04;8.55;;;2.17;;
51248;SDS011;39642;47.556;18.728;2022-09-09T07:38:37;9.57;;;2.00;;
51248;SDS011;39642;47.556;18.728;2022-09-09T07:41:09;11.10;;;2.53;;
51248;SDS011;39642;47.556;18.728;2022-09-09T07:43:38;7.85;;;2.10;;
51248;SDS011;39642;47.556;18.728;2022-09-09T07:46:06;9.65;;;2.17;;
51248;SDS011;39642;47.556;18.728;2022-09-09T07:48:32;9.60;;;1.98;;
51248;SDS011;39642;47.556;18.728;2022-09-09T07:51:06;12.23;;;2.10;;
51248;SDS011;39642;47.556;18.728;2022-09-09T07:53:37;13.40;;;2.30;;
51248;SDS011;39642;47.556;18.728;2022-09-09T07:56:04;9.05;;;1.90;;
51248;SDS011;39642;47.556;18.728;2022-09-09T07:58:32;11.43;;;2.00;;
51248;SDS011;39642;47.556;18.728;2022-09-09T08:00:59;31.12;;;3.22;;
51248;SDS011;39642;47.556;18.728;2022-09-09T08:03:24;11.38;;;2.10;;
51248;SDS011;39642;47.556;18.728;2022-09-09T08:05:50;16.42;;;2.10;;
51248;SDS011;39642;47.556;18.728;2022-09-09T08:08:17;5.62;;;1.75;;
51248;SDS011;39642;47.556;18.728;2022-09-09T08:10:42;10.77;;;2.10;;
51248;SDS011;39642;47.556;18.728;2022-09-09T08:13:08;9.35;;;2.15;;
51248;SDS011;39642;47.556;18.728;2022-09-09T08:15:34;9.10;;;1.75;;
51248;SDS011;39642;47.556;18.728;2022-09-09T08:18:00;9.48;;;2.03;;
51248;SDS011;39642;47.556;18.728;2022-09-09T08:20:28;7.00;;;1.80;;
51248;SDS011;39642;47.556;18.728;2022-09-09T08:22:55;9.45;;;1.70;;
51248;SDS011;39642;47.556;18.728;2022-09-09T08:25:21;5.80;;;1.70;;
51248;SDS011;39642;47.556;18.728;2022-09-09T08:27:47;9.38;;;1.83;;
51248;SDS011;39642;47.556;18.728;2022-09-09T08:30:12;8.02;;;1.73;;
51248;SDS011;39642;47.556;18.728;2022-09-09T08:32:39;5.95;;;1.85;;
51248;SDS011;39642;47.556;18.728;2022-09-09T08:35:05;7.80;;;1.80;;
51248;SDS011;39642;47.556;18.728;2022-09-09T08:37:31;5.40;;;1.70;;
51248;SDS011;39642;47.556;18.728;2022-09-09T08:39:57;7.05;;;1.75;;
51248;SDS011;39642;47.556;18.728;2022-09-09T08:42:26;10.82;;;1.80;;
51248;SDS011;39642;47.556;18.728;2022-09-09T08:48:08;9.30;;;1.92;;
51248;SDS011;39642;47.556;18.728;2022-09-09T08:50:37;13.40;;;2.00;;
51248;SDS011;39642;47.556;18.728;2022-09-09T08:55:45;14.65;;;2.15;;
51248;SDS011;39642;47.556;18.728;2022-09-09T08:58:12;16.27;;;2.58;;
51248;SDS011;39642;47.556;18.728;2022-09-09T09:12:19;7.55;;;1.85;;
51248;SDS011;39642;47.556;18.728;2022-09-09T09:14:47;15.50;;;2.20;;
51248;SDS011;39642;47.556;18.728;2022-09-09T09:17:18;9.35;;;1.90;;
51248;SDS011;39642;47.556;18.728;2022-09-09T09:19:47;6.70;;;1.80;;
51248;SDS011;39642;47.556;18.728;2022-09-09T09:25:15;10.57;;;1.75;;
51248;SDS011;39642;47.556;18.728;2022-09-09T09:30:35;5.78;;;1.70;;
51248;SDS011;39642;47.556;18.728;2022-09-09T09:35:58;5.62;;;1.60;;
51248;SDS011;39642;47.556;18.728;2022-09-09T09:38:26;6.70;;;1.85;;
51248;SDS011;39642;47.556;18.728;2022-09-09T09:40:54;8.40;;;1.52;;
51248;SDS011;39642;47.556;18.728;2022-09-09T09:43:33;9.25;;;1.73;;
51248;SDS011;39642;47.556;18.728;2022-09-09T09:46:03;8.75;;;1.75;;
51248;SDS011;39642;47.556;18.728;2022-09-09T09:48:29;14.27;;;2.45;;
51248;SDS011;39642;47.556;18.728;2022-09-09T09:53:26;18.85;;;3.05;;
51248;SDS011;39642;47.556;18.728;2022-09-09T09:56:03;20.40;;;2.97;;
51248;SDS011;39642;47.556;18.728;2022-09-09T09:58:53;12.27;;;2.33;;
51248;SDS011;39642;47.556;18.728;2022-09-09T10:01:30;16.45;;;2.05;;
51248;SDS011;39642;47.556;18.728;2022-09-09T10:04:22;15.20;;;2.00;;
51248;SDS011;39642;47.556;18.728;2022-09-09T10:06:49;28.27;;;3.45;;
51248;SDS011;39642;47.556;18.728;2022-09-09T10:09:20;23.92;;;2.90;;
51248;SDS011;39642;47.556;18.728;2022-09-09T10:12:00;13.52;;;1.77;;
51248;SDS011;39642;47.556;18.728;2022-09-09T10:17:04;7.03;;;1.48;;
51248;SDS011;39642;47.556;18.728;2022-09-09T10:19:36;7.37;;;1.40;;
51248;SDS011;39642;47.556;18.728;2022-09-09T10:26:58;9.63;;;1.60;;
51248;SDS011;39642;47.556;18.728;2022-09-09T10:32:11;3.58;;;1.40;;
51248;SDS011;39642;47.556;18.728;2022-09-09T10:42:55;34.20;;;3.67;;
51248;SDS011;39642;47.556;18.728;2022-09-09T10:45:36;32.78;;;2.87;;
51248;SDS011;39642;47.556;18.728;2022-09-09T10:48:20;16.50;;;2.20;;
51248;SDS011;39642;47.556;18.728;2022-09-09T10:54:17;15.43;;;2.45;;
51248;SDS011;39642;47.556;18.728;2022-09-09T10:56:49;17.75;;;3.17;;
51248;SDS011;39642;47.556;18.728;2022-09-09T10:59:20;13.32;;;3.75;;
51248;SDS011;39642;47.556;18.728;2022-09-09T11:02:28;13.60;;;3.58;;
51248;SDS011;39642;47.556;18.728;2022-09-09T11:04:55;13.52;;;2.70;;
51248;SDS011;39642;47.556;18.728;2022-09-09T11:07:28;19.30;;;4.32;;
51248;SDS011;39642;47.556;18.728;2022-09-09T11:09:58;20.80;;;2.92;;
51248;SDS011;39642;47.556;18.728;2022-09-09T11:12:27;9.32;;;1.98;;
51248;SDS011;39642;47.556;18.728;2022-09-09T11:15:01;10.23;;;2.22;;
51248;SDS011;39642;47.556;18.728;2022-09-09T11:20:28;14.27;;;3.10;;
51248;SDS011;39642;47.556;18.728;2022-09-09T11:25:33;9.93;;;2.20;;
51248;SDS011;39642;47.556;18.728;2022-09-09T11:33:39;19.83;;;3.20;;
51248;SDS011;39642;47.556;18.728;2022-09-09T11:41:45;21.52;;;2.17;;
51248;SDS011;39642;47.556;18.728;2022-09-09T11:44:12;12.20;;;1.73;;
51248;SDS011;39642;47.556;18.728;2022-09-09T11:46:44;24.55;;;2.65;;
51248;SDS011;39642;47.556;18.728;2022-09-09T11:49:49;13.00;;;2.05;;
51248;SDS011;39642;47.556;18.728;2022-09-09T11:52:12;9.55;;;2.00;;
51248;SDS011;39642;47.556;18.728;2022-09-09T11:54:49;10.02;;;1.70;;
51248;SDS011;39642;47.556;18.728;2022-09-09T11:57:34;11.38;;;1.80;;
51248;SDS011;39642;47.556;18.728;2022-09-09T12:00:02;20.98;;;2.00;;
51248;SDS011;39642;47.556;18.728;2022-09-09T12:02:29;14.87;;;2.25;;
51248;SDS011;39642;47.556;18.728;2022-09-09T12:07:58;15.15;;;2.55;;
51248;SDS011;39642;47.556;18.728;2022-09-09T12:13:07;14.02;;;1.80;;
51248;SDS011;39642;47.556;18.728;2022-09-09T12:15:48;7.45;;;1.77;;
51248;SDS011;39642;47.556;18.728;2022-09-09T12:23:43;14.60;;;2.40;;
51248;SDS011;39642;47.556;18.728;2022-09-09T12:29:38;8.07;;;1.80;;
51248;SDS011;39642;47.556;18.728;2022-09-09T12:31:43;14.23;;;2.03;;
51248;SDS011;39642;47.556;18.728;2022-09-09T12:37:16;9.27;;;1.70;;
51248;SDS011;39642;47.556;18.728;2022-09-09T12:39:45;15.43;;;2.20;;
51248;SDS011;39642;47.556;18.728;2022-09-09T12:42:16;12.57;;;2.00;;
51248;SDS011;39642;47.556;18.728;2022-09-09T12:44:52;11.50;;;2.00;;
51248;SDS011;39642;47.556;18.728;2022-09-09T12:47:25;10.32;;;1.70;;
51248;SDS011;39642;47.556;18.728;2022-09-09T12:50:00;7.65;;;1.75;;
51248;SDS011;39642;47.556;18.728;2022-09-09T12:52:27;5.90;;;1.77;;
51248;SDS011;39642;47.556;18.728;2022-09-09T12:55:01;8.80;;;1.60;;
51248;SDS011;39642;47.556;18.728;2022-09-09T12:57:31;6.90;;;1.50;;
51248;SDS011;39642;47.556;18.728;2022-09-09T13:00:20;4.90;;;1.62;;
51248;SDS011;39642;47.556;18.728;2022-09-09T13:02:55;8.95;;;1.70;;
51248;SDS011;39642;47.556;18.728;2022-09-09T13:05:26;11.02;;;2.10;;
51248;SDS011;39642;47.556;18.728;2022-09-09T13:08:03;12.02;;;2.22;;
51248;SDS011;39642;47.556;18.728;2022-09-09T13:10:38;22.73;;;2.67;;
51248;SDS011;39642;47.556;18.728;2022-09-09T13:13:12;13.18;;;2.22;;
51248;SDS011;39642;47.556;18.728;2022-09-09T13:15:39;25.10;;;4.00;;
51248;SDS011;39642;47.556;18.728;2022-09-09T13:18:07;32.38;;;4.70;;
51248;SDS011;39642;47.556;18.728;2022-09-09T13:20:37;21.13;;;4.17;;
51248;SDS011;39642;47.556;18.728;2022-09-09T13:23:04;30.58;;;4.37;;
51248;SDS011;39642;47.556;18.728;2022-09-09T13:25:30;23.15;;;3.95;;
51248;SDS011;39642;47.556;18.728;2022-09-09T13:27:57;20.30;;;3.40;;
51248;SDS011;39642;47.556;18.728;2022-09-09T13:35:35;23.08;;;3.65;;
51248;SDS011;39642;47.556;18.728;2022-09-09T13:38:14;20.50;;;3.30;;
51248;SDS011;39642;47.556;18.728;2022-09-09T13:40:51;18.30;;;3.47;;
51248;SDS011;39642;47.556;18.728;2022-09-09T13:43:21;20.60;;;3.90;;
51248;SDS011;39642;47.556;18.728;2022-09-09T13:48:25;14.93;;;2.70;;
51248;SDS011;39642;47.556;18.728;2022-09-09T13:50:58;12.50;;;2.70;;
51248;SDS011;39642;47.556;18.728;2022-09-09T13:53:26;18.05;;;3.30;;
51248;SDS011;39642;47.556;18.728;2022-09-09T13:55:52;17.77;;;4.10;;
51248;SDS011;39642;47.556;18.728;2022-09-09T13:58:19;24.98;;;3.97;;
51248;SDS011;39642;47.556;18.728;2022-09-09T14:00:45;28.77;;;3.80;;
51248;SDS011;39642;47.556;18.728;2022-09-09T14:03:12;34.90;;;4.18;;
51248;SDS011;39642;47.556;18.728;2022-09-09T14:05:39;28.83;;;2.83;;
51248;SDS011;39642;47.556;18.728;2022-09-09T14:08:05;16.60;;;2.50;;
51248;SDS011;39642;47.556;18.728;2022-09-09T14:10:33;15.70;;;2.65;;
51248;SDS011;39642;47.556;18.728;2022-09-09T14:13:02;25.75;;;2.90;;
51248;SDS011;39642;47.556;18.728;2022-09-09T14:15:28;25.48;;;3.40;;
51248;SDS011;39642;47.556;18.728;2022-09-09T14:17:54;9.95;;;1.90;;
51248;SDS011;39642;47.556;18.728;2022-09-09T14:20:20;10.55;;;1.70;;
51248;SDS011;39642;47.556;18.728;2022-09-09T14:22:46;16.33;;;1.92;;
51248;SDS011;39642;47.556;18.728;2022-09-09T14:25:12;7.40;;;1.58;;
51248;SDS011;39642;47.556;18.728;2022-09-09T14:27:39;7.70;;;1.60;;
51248;SDS011;39642;47.556;18.728;2022-09-09T14:30:05;12.52;;;2.05;;
51248;SDS011;39642;47.556;18.728;2022-09-09T14:32:32;13.80;;;2.45;;
51248;SDS011;39642;47.556;18.728;2022-09-09T14:34:58;10.77;;;2.25;;
51248;SDS011;39642;47.556;18.728;2022-09-09T14:37:24;12.05;;;1.90;;
51248;SDS011;39642;47.556;18.728;2022-09-09T14:39:50;8.57;;;1.50;;
51248;SDS011;39642;47.556;18.728;2022-09-09T14:42:17;7.32;;;1.62;;
51248;SDS011;39642;47.556;18.728;2022-09-09T14:44:43;10.60;;;1.70;;
51248;SDS011;39642;47.556;18.728;2022-09-09T14:47:09;10.82;;;1.80;;
51248;SDS011;39642;47.556;18.728;2022-09-09T14:49:35;6.53;;;1.50;;
51248;SDS011;39642;47.556;18.728;2022-09-09T14:52:01;6.32;;;1.60;;
51248;SDS011;39642;47.556;18.728;2022-09-09T14:54:27;8.85;;;1.58;;
51248;SDS011;39642;47.556;18.728;2022-09-09T14:56:53;6.10;;;1.70;;
51248;SDS011;39642;47.556;18.728;2022-09-09T14:59:19;4.70;;;1.40;;
51248;SDS011;39642;47.556;18.728;2022-09-09T15:01:45;5.62;;;1.60;;
51248;SDS011;39642;47.556;18.728;2022-09-09T15:04:11;7.20;;;1.60;;
51248;SDS011;39642;47.556;18.728;2022-09-09T15:06:40;6.28;;;1.30;;
51248;SDS011;39642;47.556;18.728;2022-09-09T15:09:07;8.82;;;1.42;;
51248;SDS011;39642;47.556;18.728;2022-09-09T15:11:34;4.97;;;1.60;;
51248;SDS011;39642;47.556;18.728;2022-09-09T15:14:05;7.43;;;1.48;;
51248;SDS011;39642;47.556;18.728;2022-09-09T15:16:32;4.10;;;1.40;;
51248;SDS011;39642;47.556;18.728;2022-09-09T15:18:59;5.47;;;1.50;;
51248;SDS011;39642;47.556;18.728;2022-09-09T15:21:27;6.25;;;1.62;;
51248;SDS011;39642;47.556;18.728;2022-09-09T15:23:55;6.00;;;1.45;;
51248;SDS011;39642;47.556;18.728;2022-09-09T15:26:22;8.02;;;1.50;;
51248;SDS011;39642;47.556;18.728;2022-09-09T15:28:49;5.05;;;1.40;;
51248;SDS011;39642;47.556;18.728;2022-09-09T15:31:20;5.07;;;1.52;;
51248;SDS011;39642;47.556;18.728;2022-09-09T15:33:51;4.40;;;1.42;;
51248;SDS011;39642;47.556;18.728;2022-09-09T15:36:23;4.18;;;1.45;;
51248;SDS011;39642;47.556;18.728;2022-09-09T15:38:51;5.82;;;1.35;;
51248;SDS011;39642;47.556;18.728;2022-09-09T15:41:18;5.10;;;1.55;;
51248;SDS011;39642;47.556;18.728;2022-09-09T15:43:45;5.10;;;1.30;;
51248;SDS011;39642;47.556;18.728;2022-09-09T15:46:23;6.15;;;1.30;;
51248;SDS011;39642;47.556;18.728;2022-09-09T15:48:49;5.18;;;1.50;;
51248;SDS011;39642;47.556;18.728;2022-09-09T15:51:16;5.07;;;1.58;;
51248;SDS011;39642;47.556;18.728;2022-09-09T15:53:42;7.53;;;1.60;;
51248;SDS011;39642;47.556;18.728;2022-09-09T15:56:08;5.57;;;1.50;;
51248;SDS011;39642;47.556;18.728;2022-09-09T15:58:35;9.48;;;2.05;;
51248;SDS011;39642;47.556;18.728;2022-09-09T16:01:08;6.80;;;1.90;;
51248;SDS011;39642;47.556;18.728;2022-09-09T16:03:36;4.82;;;1.48;;
51248;SDS011;39642;47.556;18.728;2022-09-09T16:06:03;9.02;;;1.58;;
51248;SDS011;39642;47.556;18.728;2022-09-09T16:08:34;9.25;;;1.65;;
51248;SDS011;39642;47.556;18.728;2022-09-09T16:11:08;9.00;;;1.65;;
51248;SDS011;39642;47.556;18.728;2022-09-09T16:13:36;6.53;;;1.50;;
51248;SDS011;39642;47.556;18.728;2022-09-09T16:16:03;7.10;;;1.58;;
51248;SDS011;39642;47.556;18.728;2022-09-09T16:18:36;8.02;;;1.50;;
51248;SDS011;39642;47.556;18.728;2022-09-09T16:21:03;8.63;;;1.60;;
51248;SDS011;39642;47.556;18.728;2022-09-09T16:23:33;7.07;;;1.60;;
51248;SDS011;39642;47.556;18.728;2022-09-09T16:26:02;8.93;;;1.50;;
51248;SDS011;39642;47.556;18.728;2022-09-09T16:28:28;6.97;;;1.62;;
51248;SDS011;39642;47.556;18.728;2022-09-09T16:30:54;7.25;;;1.77;;
51248;SDS011;39642;47.556;18.728;2022-09-09T16:33:21;6.68;;;1.70;;
51248;SDS011;39642;47.556;18.728;2022-09-09T16:35:47;6.90;;;1.50;;
51248;SDS011;39642;47.556;18.728;2022-09-09T16:38:14;7.37;;;1.75;;
51248;SDS011;39642;47.556;18.728;2022-09-09T16:40:40;6.75;;;1.60;;
51248;SDS011;39642;47.556;18.728;2022-09-09T16:43:07;6.45;;;1.67;;
51248;SDS011;39642;47.556;18.728;2022-09-09T16:45:40;7.32;;;1.70;;
51248;SDS011;39642;47.556;18.728;2022-09-09T16:48:11;5.68;;;1.40;;
51248;SDS011;39642;47.556;18.728;2022-09-09T16:50:37;6.70;;;1.70;;
51248;SDS011;39642;47.556;18.728;2022-09-09T16:53:04;6.57;;;1.37;;
51248;SDS011;39642;47.556;18.728;2022-09-09T16:55:37;7.28;;;1.70;;
51248;SDS011;39642;47.556;18.728;2022-09-09T16:58:04;7.72;;;1.60;;
51248;SDS011;39642;47.556;18.728;2022-09-09T17:00:30;5.35;;;1.50;;
51248;SDS011;39642;47.556;18.728;2022-09-09T17:02:56;5.37;;;1.58;;
51248;SDS011;39642;47.556;18.728;2022-09-09T17:05:22;7.70;;;1.65;;
51248;SDS011;39642;47.556;18.728;2022-09-09T17:07:48;8.02;;;1.70;;
51248;SDS011;39642;47.556;18.728;2022-09-09T17:10:14;6.45;;;1.70;;